createdAt,value
2022-12-25T00:02:47.433Z,9.70
2022-12-25T00:06:50.358Z,5.70
2022-12-25T00:11:06.919Z,7.33
2022-12-25T00:15:09.181Z,9.13
2022-12-25T00:19:10.894Z,8.97
2022-12-25T00:23:12.654Z,10.53
2022-12-25T00:27:14.467Z,7.53
2022-12-25T00:31:18.040Z,8.20
2022-12-25T00:35:19.837Z,5.80
2022-12-25T00:39:21.693Z,7.40
2022-12-25T00:43:24.243Z,12.93
2022-12-25T00:47:26.051Z,20.77
2022-12-25T00:51:27.951Z,21.73
2022-12-25T00:55:31.100Z,17.13
2022-12-25T00:59:34.465Z,18.03
2022-12-25T01:03:36.246Z,16.40
2022-12-25T01:07:38.138Z,16.03
2022-12-25T01:11:40.179Z,17.40
2022-12-25T01:15:41.963Z,17.27
2022-12-25T01:19:43.716Z,15.13
2022-12-25T01:23:45.507Z,13.60
2022-12-25T01:27:47.320Z,11.47
2022-12-25T01:31:49.360Z,12.50
2022-12-25T01:35:52.438Z,12.70
2022-12-25T01:39:54.278Z,14.80
2022-12-25T01:44:05.081Z,12.80
2022-12-25T01:48:11.771Z,13.00
2022-12-25T01:52:24.073Z,14.23
2022-12-25T01:56:28.216Z,16.63
2022-12-25T02:00:30.115Z,10.40
2022-12-25T02:04:41.371Z,11.83
2022-12-25T02:08:43.497Z,12.90
2022-12-25T02:12:47.087Z,12.00
2022-12-25T02:16:57.652Z,11.83
2022-12-25T02:21:12.681Z,18.90
2022-12-25T02:25:45.243Z,13.23
2022-12-25T02:29:49.510Z,14.90
2022-12-25T02:34:11.690Z,14.80
2022-12-25T02:38:20.365Z,18.00
2022-12-25T02:42:53.809Z,15.67
2022-12-25T02:47:14.659Z,13.57
2022-12-25T02:51:38.114Z,12.13
2022-12-25T02:56:00.982Z,13.87
2022-12-25T03:00:22.609Z,11.80
2022-12-25T03:04:45.271Z,11.57
2022-12-25T03:08:51.569Z,13.60
2022-12-25T03:13:05.993Z,16.13
2022-12-25T03:17:09.244Z,16.10
2022-12-25T03:21:29.793Z,14.73
2022-12-25T03:25:50.423Z,15.03
2022-12-25T03:30:10.729Z,11.20
2022-12-25T03:34:41.666Z,12.53
2022-12-25T03:39:26.602Z,15.70
2022-12-25T03:44:25.301Z,14.00
2022-12-25T03:48:49.112Z,12.80
2022-12-25T03:53:13.307Z,16.53
2022-12-25T03:57:33.481Z,14.23
2022-12-25T04:01:53.896Z,13.70
2022-12-25T04:06:14.562Z,12.90
2022-12-25T04:10:34.956Z,14.53
2022-12-25T04:14:55.443Z,19.23
2022-12-25T04:19:16.011Z,14.40
2022-12-25T04:23:36.536Z,18.17
2022-12-25T04:27:56.894Z,15.57
2022-12-25T04:32:17.457Z,17.30
2022-12-25T04:36:19.878Z,18.00
2022-12-25T04:40:21.604Z,18.23
2022-12-25T04:44:23.357Z,16.03
2022-12-25T04:48:26.877Z,16.17
2022-12-25T04:52:28.861Z,18.30
2022-12-25T04:56:30.647Z,18.57
2022-12-25T05:00:32.534Z,17.53
2022-12-25T05:04:34.499Z,28.10
2022-12-25T05:08:36.923Z,25.03
2022-12-25T05:12:38.689Z,27.23
2022-12-25T05:16:40.459Z,24.80
2022-12-25T05:20:42.407Z,20.37
2022-12-25T05:24:44.145Z,19.23
2022-12-25T05:28:46.790Z,23.10
2022-12-25T05:32:48.949Z,23.23
2022-12-25T05:36:50.687Z,21.93
2022-12-25T05:40:52.559Z,24.33
2022-12-25T05:44:54.324Z,28.67
2022-12-25T05:48:56.109Z,37.33
2022-12-25T05:53:01.506Z,19.03
2022-12-25T05:57:07.780Z,17.80
2022-12-25T06:01:22.567Z,19.20
2022-12-25T06:05:24.858Z,18.30
2022-12-25T06:09:26.718Z,18.00
2022-12-25T06:13:28.475Z,18.30
2022-12-25T06:17:30.219Z,22.93
2022-12-25T06:21:32.115Z,24.03
2022-12-25T06:25:33.874Z,28.30
2022-12-25T06:29:35.713Z,22.77
2022-12-25T06:33:37.619Z,23.20
2022-12-25T06:37:39.410Z,24.73
2022-12-25T06:41:41.161Z,22.40
2022-12-25T06:45:42.956Z,22.23
2022-12-25T06:49:44.823Z,22.57
2022-12-25T06:53:47.923Z,30.17
2022-12-25T06:57:49.751Z,26.70
2022-12-25T07:01:55.550Z,23.67
2022-12-25T07:05:57.501Z,28.97
2022-12-25T07:09:59.272Z,27.37
2022-12-25T07:14:01.053Z,38.77
2022-12-25T07:18:02.787Z,27.17
2022-12-25T07:22:04.699Z,32.87
2022-12-25T07:26:07.139Z,26.30
2022-12-25T07:30:09.527Z,31.43
2022-12-25T07:34:11.337Z,45.53
2022-12-25T07:38:13.153Z,39.20
2022-12-25T07:42:15.008Z,41.97
2022-12-25T07:46:18.120Z,26.53
2022-12-25T07:50:20.141Z,25.97
2022-12-25T07:54:22.008Z,40.53
2022-12-25T07:58:23.932Z,32.60
2022-12-25T08:02:28.842Z,33.43
2022-12-25T08:06:33.373Z,28.20
2022-12-25T08:10:35.240Z,25.57
2022-12-25T08:14:36.989Z,27.93
2022-12-25T08:18:39.806Z,28.30
2022-12-25T08:22:41.626Z,28.63
2022-12-25T08:26:43.392Z,31.43
2022-12-25T08:30:45.289Z,30.50
2022-12-25T08:34:47.188Z,30.50
2022-12-25T08:38:49.173Z,34.80
2022-12-25T08:42:50.984Z,30.73
2022-12-25T08:46:53.334Z,37.67
2022-12-25T08:50:55.162Z,29.33
2022-12-25T08:54:56.995Z,32.47
2022-12-25T08:58:58.820Z,30.20
2022-12-25T09:03:00.866Z,26.77
2022-12-25T09:07:02.769Z,25.43
2022-12-25T09:11:13.144Z,26.40
2022-12-25T09:15:15.485Z,26.73
2022-12-25T09:19:17.376Z,29.43
2022-12-25T09:23:19.172Z,28.00
2022-12-25T09:27:21.001Z,30.17
2022-12-25T09:31:23.278Z,29.57
2022-12-25T09:35:25.130Z,37.23
2022-12-25T09:39:26.961Z,29.80
2022-12-25T09:43:32.732Z,31.40
2022-12-25T09:47:38.262Z,27.13
2022-12-25T09:51:44.209Z,29.40
2022-12-25T09:56:00.518Z,29.10
2022-12-25T10:00:02.348Z,30.33
2022-12-25T10:04:12.076Z,31.60
2022-12-25T10:08:47.257Z,28.97
2022-12-25T10:13:07.904Z,28.90
2022-12-25T10:17:44.900Z,28.13
2022-12-25T10:21:48.084Z,26.10
2022-12-25T10:25:51.638Z,27.93
2022-12-25T10:29:54.769Z,25.07
2022-12-25T10:33:56.681Z,27.33
2022-12-25T10:38:14.726Z,26.93
2022-12-25T10:42:42.212Z,30.47
2022-12-25T10:46:49.957Z,29.77
2022-12-25T10:50:52.301Z,24.43
2022-12-25T10:54:55.229Z,25.63
2022-12-25T10:59:11.373Z,23.30
2022-12-25T11:03:23.354Z,21.30
2022-12-25T11:07:26.562Z,19.70
2022-12-25T11:11:29.767Z,20.17
2022-12-25T11:15:31.719Z,18.73
2022-12-25T11:19:33.601Z,17.67
2022-12-25T11:23:35.374Z,18.87
2022-12-25T11:27:37.132Z,17.00
2022-12-25T11:31:43.563Z,19.67
2022-12-25T11:35:50.561Z,18.97
2022-12-25T11:39:52.340Z,20.53
2022-12-25T11:43:59.355Z,21.03
2022-12-25T11:48:13.133Z,19.37
2022-12-25T11:52:17.099Z,18.50
2022-12-25T11:56:23.808Z,16.37
2022-12-25T12:00:25.768Z,18.17
2022-12-25T12:04:42.957Z,15.13
2022-12-25T12:08:48.470Z,12.73
2022-12-25T12:13:24.024Z,11.80
2022-12-25T12:17:26.332Z,13.67
2022-12-25T12:21:30.294Z,11.37
2022-12-25T12:25:37.929Z,11.80
2022-12-25T12:29:50.577Z,10.93
2022-12-25T12:33:56.525Z,9.97
2022-12-25T12:38:03.445Z,13.63
2022-12-25T12:42:18.715Z,10.13
2022-12-25T12:46:30.696Z,14.10
2022-12-25T12:50:39.849Z,14.10
2022-12-25T12:55:01.363Z,13.93
2022-12-25T12:59:03.198Z,9.80
2022-12-25T13:03:31.628Z,11.33
2022-12-25T13:07:43.969Z,9.13
2022-12-25T13:11:46.125Z,8.10
2022-12-25T13:15:50.246Z,7.97
2022-12-25T13:19:58.180Z,8.60
2022-12-25T13:24:08.790Z,8.23
2022-12-25T13:28:14.681Z,8.10
2022-12-25T13:32:32.581Z,8.33
2022-12-25T13:36:40.280Z,9.33
2022-12-25T13:41:11.919Z,11.07
2022-12-25T13:45:13.760Z,6.67
2022-12-25T13:49:19.500Z,7.63
2022-12-25T13:53:21.364Z,7.13
2022-12-25T13:57:30.190Z,7.40
2022-12-25T14:01:32.476Z,10.53
2022-12-25T14:05:42.899Z,23.60
2022-12-25T14:09:47.001Z,10.83
2022-12-25T14:13:52.290Z,8.33
2022-12-25T14:17:54.342Z,10.27
2022-12-25T14:22:07.532Z,7.07
2022-12-25T14:26:29.353Z,6.17
2022-12-25T14:30:31.332Z,8.17
2022-12-25T14:34:33.893Z,9.10
2022-12-25T14:38:35.753Z,9.40
2022-12-25T14:42:37.641Z,7.40
2022-12-25T14:46:39.653Z,7.60
2022-12-25T14:50:50.985Z,10.57
2022-12-25T14:55:20.201Z,15.27
2022-12-25T14:59:26.143Z,18.60
2022-12-25T15:03:31.119Z,23.50
2022-12-25T15:07:33.265Z,25.77
2022-12-25T15:11:35.187Z,23.20
2022-12-25T15:15:37.265Z,28.83
2022-12-25T15:19:39.274Z,23.33
2022-12-25T15:23:41.320Z,31.13
2022-12-25T15:27:43.359Z,20.80
2022-12-25T15:31:45.300Z,15.37
2022-12-25T15:35:47.247Z,9.63
2022-12-25T15:39:49.137Z,12.33
2022-12-25T15:43:51.192Z,12.40
2022-12-25T15:47:53.330Z,15.77
2022-12-25T15:51:55.232Z,22.53
2022-12-25T15:55:57.371Z,19.03
2022-12-25T15:59:59.450Z,18.17
2022-12-25T16:04:01.387Z,23.40
2022-12-25T16:08:03.482Z,25.80
2022-12-25T16:12:05.606Z,20.07
2022-12-25T16:16:07.879Z,20.70
2022-12-25T16:20:13.303Z,18.90
2022-12-25T16:24:15.357Z,22.97
2022-12-25T16:28:17.334Z,20.33
2022-12-25T16:32:19.219Z,27.30
2022-12-25T16:36:26.746Z,26.63
2022-12-25T16:40:29.084Z,29.47
2022-12-25T16:44:31.068Z,28.57
2022-12-25T16:48:32.908Z,30.87
2022-12-25T16:52:35.837Z,30.93
2022-12-25T16:56:38.484Z,34.83
2022-12-25T17:00:44.246Z,29.27
2022-12-25T17:04:51.001Z,31.30
2022-12-25T17:08:58.458Z,29.40
2022-12-25T17:13:00.439Z,26.30
2022-12-25T17:17:03.453Z,30.30
2022-12-25T17:21:05.530Z,35.50
2022-12-25T17:25:07.741Z,29.03
2022-12-25T17:29:11.211Z,30.67
2022-12-25T17:33:13.141Z,32.13
2022-12-25T17:37:15.076Z,30.47
2022-12-25T17:41:18.440Z,28.93
2022-12-25T17:45:20.484Z,36.27
2022-12-25T17:49:22.839Z,34.97
2022-12-25T17:53:24.738Z,33.60
2022-12-25T17:57:26.699Z,24.80
2022-12-25T18:01:30.545Z,26.87
2022-12-25T18:05:36.167Z,32.17
2022-12-25T18:09:38.109Z,32.30
2022-12-25T18:13:42.088Z,32.87
2022-12-25T18:17:43.920Z,34.77
2022-12-25T18:21:45.855Z,36.03
2022-12-25T18:25:48.096Z,39.07
2022-12-25T18:29:49.978Z,42.50
2022-12-25T18:33:52.637Z,55.70
2022-12-25T18:37:54.617Z,63.67
2022-12-25T18:42:14.999Z,26.80
2022-12-25T18:46:18.172Z,24.10
2022-12-25T18:50:20.312Z,25.13
2022-12-25T18:54:22.622Z,30.67
2022-12-25T18:58:26.149Z,19.60
2022-12-25T19:02:29.180Z,18.40
2022-12-25T19:06:33.217Z,16.03
2022-12-25T19:10:35.585Z,17.70
2022-12-25T19:14:47.462Z,11.73
2022-12-25T19:18:50.225Z,6.40
2022-12-25T19:22:52.147Z,5.23
2022-12-25T19:26:54.164Z,7.60
2022-12-25T19:30:59.617Z,7.00
2022-12-25T19:35:04.428Z,5.73
2022-12-25T19:39:08.506Z,8.13
2022-12-25T19:43:10.434Z,8.50
2022-12-25T19:47:12.451Z,7.40
2022-12-25T19:51:23.328Z,7.60
2022-12-25T19:55:25.238Z,10.27
2022-12-25T19:59:27.110Z,8.43
2022-12-25T20:03:29.183Z,8.93
2022-12-25T20:07:31.230Z,8.10
2022-12-25T20:11:34.490Z,8.17
2022-12-25T20:15:36.364Z,10.20
2022-12-25T20:19:38.412Z,9.23
2022-12-25T20:23:41.302Z,9.17
2022-12-25T20:27:43.319Z,10.70
2022-12-25T20:31:45.348Z,11.60
2022-12-25T20:35:48.248Z,12.30
2022-12-25T20:39:50.132Z,11.10
2022-12-25T20:43:52.556Z,11.17
2022-12-25T20:47:54.574Z,14.80
2022-12-25T20:52:01.365Z,12.60
2022-12-25T20:56:09.707Z,15.10
2022-12-25T21:00:12.532Z,10.93
2022-12-25T21:04:16.533Z,14.97
2022-12-25T21:08:20.634Z,13.13
2022-12-25T21:12:22.630Z,13.50
2022-12-25T21:16:24.841Z,13.67
2022-12-25T21:20:26.861Z,12.93
2022-12-25T21:24:28.870Z,16.20
2022-12-25T21:28:32.311Z,15.27
2022-12-25T21:32:52.656Z,15.83
2022-12-25T21:36:54.484Z,49.20
2022-12-25T21:41:01.557Z,19.87
2022-12-25T21:45:03.615Z,16.77
2022-12-25T21:49:05.620Z,16.33
2022-12-25T21:53:08.346Z,15.93
2022-12-25T21:57:10.252Z,15.40
2022-12-25T22:01:14.517Z,15.50
2022-12-25T22:05:34.986Z,16.93
2022-12-25T22:09:37.416Z,15.73
2022-12-25T22:13:57.839Z,17.33
2022-12-25T22:18:17.981Z,17.43
2022-12-25T22:22:28.463Z,17.67
2022-12-25T22:26:30.401Z,18.50
2022-12-25T22:30:32.414Z,18.43
2022-12-25T22:34:36.954Z,18.70
2022-12-25T22:38:42.433Z,18.27
2022-12-25T22:42:44.471Z,17.10
2022-12-25T22:46:46.508Z,15.93
2022-12-25T22:50:48.521Z,15.27
2022-12-25T22:54:50.644Z,16.70
2022-12-25T22:58:52.626Z,17.27
2022-12-25T23:02:54.647Z,16.27
2022-12-25T23:06:56.800Z,15.73
2022-12-25T23:11:03.580Z,14.80
2022-12-25T23:15:06.119Z,16.70
2022-12-25T23:19:26.972Z,17.13
2022-12-25T23:23:47.273Z,15.97
2022-12-25T23:27:49.182Z,14.37
2022-12-25T23:31:53.564Z,15.77
2022-12-25T23:35:55.508Z,16.47
2022-12-25T23:39:57.531Z,15.97
2022-12-25T23:43:59.494Z,15.93
2022-12-25T23:48:01.333Z,15.67
2022-12-25T23:52:03.650Z,12.63
2022-12-25T23:56:05.881Z,12.47
